createdAt,value
2022-08-05T00:00:12.703Z,76933.47
2022-08-05T00:02:43.890Z,76935.56
2022-08-05T00:06:01.782Z,76931.38
2022-08-05T00:08:05.039Z,76927.19
2022-08-05T00:10:31.697Z,76939.75
2022-08-05T00:12:58.754Z,76950.19
2022-08-05T00:15:56.413Z,76943.91
2022-08-05T00:18:21.693Z,76956.47
2022-08-05T00:20:50.332Z,76941.81
2022-08-05T00:23:17.219Z,76943.91
2022-08-05T00:25:57.417Z,76950.19
2022-08-05T00:28:29.416Z,76960.63
2022-08-05T00:30:56.486Z,76960.63
2022-08-05T00:34:55.706Z,76966.91
2022-08-05T00:37:11.459Z,76962.72
2022-08-05T00:39:02.565Z,76962.72
2022-08-05T00:41:55.269Z,76960.63
2022-08-05T00:44:20.864Z,76973.19
2022-08-05T00:46:54.275Z,76996.16
2022-08-05T00:49:28.220Z,76991.97
2022-08-05T00:51:59.392Z,77004.53
2022-08-05T00:54:28.154Z,76987.81
2022-08-05T00:56:56.849Z,77006.63
2022-08-05T00:59:23.724Z,77017.06
2022-08-05T01:01:51.052Z,77044.22
2022-08-05T01:04:20.357Z,77067.22
2022-08-05T01:06:53.637Z,77071.41
2022-08-05T01:09:21.943Z,76998.25
2022-08-05T01:11:51.773Z,76933.47
2022-08-05T01:14:27.819Z,76954.38
2022-08-05T01:17:07.036Z,76977.34
2022-08-05T01:20:01.915Z,76964.81
2022-08-05T01:22:57.213Z,76973.19
2022-08-05T01:25:57.770Z,76991.97
2022-08-05T01:28:36.216Z,77002.44
2022-08-05T01:31:09.627Z,77017.06
2022-08-05T01:33:49.325Z,77021.25
2022-08-05T01:36:20.984Z,77025.44
2022-08-05T01:38:49.905Z,77027.50
2022-08-05T01:41:18.565Z,77019.16
2022-08-05T01:43:50.067Z,77014.97
2022-08-05T01:46:43.012Z,77010.78
2022-08-05T01:49:22.700Z,76994.06
2022-08-05T01:51:53.911Z,77008.69
2022-08-05T01:54:25.695Z,77040.06
2022-08-05T01:58:12.460Z,77037.97
2022-08-05T01:59:41.582Z,77035.88
2022-08-05T02:02:14.357Z,77033.78
2022-08-05T02:04:43.163Z,77037.97
2022-08-05T02:07:21.597Z,77033.78
2022-08-05T02:09:48.854Z,77040.06
2022-08-05T02:12:22.673Z,77056.78
2022-08-05T02:15:14.293Z,77060.94
2022-08-05T02:18:31.991Z,77069.31
2022-08-05T02:20:46.975Z,77073.50
2022-08-05T02:23:14.060Z,77069.31
2022-08-05T02:25:49.464Z,77075.59
2022-08-05T02:28:31.243Z,77065.13
2022-08-05T02:31:04.150Z,77060.94
2022-08-05T02:33:35.862Z,77060.94
2022-08-05T02:36:09.436Z,77069.31
2022-08-05T02:38:36.388Z,77071.41
2022-08-05T02:41:14.508Z,77075.59
2022-08-05T02:44:02.837Z,77071.41
2022-08-05T02:46:32.109Z,77088.13
2022-08-05T02:48:59.535Z,77096.47
2022-08-05T02:51:28.279Z,77104.84
2022-08-05T02:54:35.794Z,77109.03
2022-08-05T02:57:00.949Z,77121.56
2022-08-05T02:59:28.242Z,77127.84
2022-08-05T03:02:00.649Z,77125.75
2022-08-05T03:04:28.018Z,77123.66
2022-08-05T03:06:59.538Z,77111.09
2022-08-05T03:09:38.196Z,77104.84
2022-08-05T03:12:10.114Z,77111.09
2022-08-05T03:14:45.954Z,77121.56
2022-08-05T03:17:12.792Z,77129.91
2022-08-05T03:19:39.342Z,77140.38
2022-08-05T03:22:16.596Z,77140.38
2022-08-05T03:24:51.092Z,77134.09
2022-08-05T03:27:19.823Z,77129.91
2022-08-05T03:30:07.317Z,77132.00
2022-08-05T03:32:33.825Z,77157.09
2022-08-05T03:35:01.483Z,77165.44
2022-08-05T03:37:31.405Z,77167.53
2022-08-05T03:40:12.045Z,77167.53
2022-08-05T03:42:41.818Z,77157.09
2022-08-05T03:45:22.177Z,77175.91
2022-08-05T03:47:49.888Z,77184.25
2022-08-05T03:50:16.406Z,77186.34
2022-08-05T03:54:58.756Z,77186.34
2022-08-05T03:56:11.591Z,77192.63
2022-08-05T03:58:43.202Z,77192.63
2022-08-05T04:01:13.451Z,77188.44
2022-08-05T04:04:09.005Z,77200.97
2022-08-05T04:06:29.214Z,77207.25
2022-08-05T04:08:56.733Z,77211.44
2022-08-05T04:11:23.746Z,77219.78
2022-08-05T04:14:10.472Z,77221.88
2022-08-05T04:16:44.767Z,77217.69
2022-08-05T04:19:12.804Z,77209.34
2022-08-05T04:22:10.038Z,77207.25
2022-08-05T04:24:26.225Z,77215.63
2022-08-05T04:26:54.256Z,77221.88
2022-08-05T04:29:20.922Z,77226.06
2022-08-05T04:31:48.432Z,77223.97
2022-08-05T04:34:31.294Z,77215.63
2022-08-05T04:37:01.092Z,77207.25
2022-08-05T04:39:30.339Z,77203.06
2022-08-05T04:41:56.863Z,77213.53
2022-08-05T04:44:29.426Z,77232.34
2022-08-05T04:46:58.771Z,77236.50
2022-08-05T04:49:38.755Z,77234.41
2022-08-05T04:52:12.553Z,77236.50
2022-08-05T04:54:39.106Z,77255.31
2022-08-05T04:57:05.694Z,77269.94
2022-08-05T04:59:38.838Z,77295.03
2022-08-05T05:02:41.598Z,77288.75
2022-08-05T05:04:53.078Z,77278.31
2022-08-05T05:07:29.407Z,77263.69
2022-08-05T05:09:58.650Z,77242.78
2022-08-05T05:12:27.559Z,77240.69
2022-08-05T05:14:54.335Z,77251.13
2022-08-05T05:17:24.363Z,77255.31
2022-08-05T05:19:57.710Z,77263.69
2022-08-05T05:22:26.091Z,77253.22
2022-08-05T05:24:58.513Z,77255.31
2022-08-05T05:27:45.716Z,77249.06
2022-08-05T05:30:29.384Z,77240.69
2022-08-05T05:33:00.658Z,77226.06
2022-08-05T05:35:29.266Z,77223.97
2022-08-05T05:38:03.069Z,77228.16
2022-08-05T05:40:32.462Z,77230.25
2022-08-05T05:43:00.865Z,77203.06
2022-08-05T05:45:28.723Z,77198.88
2022-08-05T05:48:05.308Z,77200.97
2022-08-05T05:50:35.631Z,77205.16
2022-08-05T05:53:22.240Z,77213.53
2022-08-05T05:55:52.495Z,77232.34
2022-08-05T05:58:32.002Z,77255.31
2022-08-05T06:01:04.921Z,77259.50
2022-08-05T06:04:00.732Z,77265.78
2022-08-05T06:06:28.148Z,77263.69
2022-08-05T06:09:00.111Z,77267.88
2022-08-05T06:11:26.663Z,77280.41
2022-08-05T06:13:55.782Z,77307.56
2022-08-05T06:16:29.147Z,77313.84
2022-08-05T06:19:00.239Z,77313.84
2022-08-05T06:21:37.037Z,77320.13
2022-08-05T06:24:11.996Z,77324.28
2022-08-05T06:26:52.367Z,77324.28
2022-08-05T06:29:25.170Z,77332.66
2022-08-05T06:32:21.106Z,77336.84
2022-08-05T06:34:53.579Z,77328.47
2022-08-05T06:37:56.656Z,77326.38
2022-08-05T06:40:09.929Z,77311.75
2022-08-05T06:42:37.097Z,77311.75
2022-08-05T06:45:08.593Z,77313.84
2022-08-05T06:48:36.497Z,77313.84
2022-08-05T06:50:22.442Z,77324.28
2022-08-05T06:52:58.762Z,77313.84
2022-08-05T06:55:30.162Z,77309.66
2022-08-05T06:58:20.136Z,77297.13
2022-08-05T07:00:49.385Z,77288.75
2022-08-05T07:03:17.117Z,77278.31
2022-08-05T07:05:44.082Z,77292.94
2022-08-05T07:08:13.181Z,77297.13
2022-08-05T07:10:52.355Z,77297.13
2022-08-05T07:13:57.514Z,77286.66
2022-08-05T07:17:59.722Z,77297.13
2022-08-05T07:22:17.084Z,77326.38
2022-08-05T07:24:43.995Z,77334.75
2022-08-05T07:27:20.142Z,77351.47
2022-08-05T07:30:29.905Z,77345.19
2022-08-05T07:32:38.513Z,77336.84
2022-08-05T07:36:02.655Z,77328.47
2022-08-05T07:37:58.674Z,77318.03
2022-08-05T07:40:31.447Z,77326.38
2022-08-05T07:42:59.676Z,77320.13
2022-08-05T07:45:58.019Z,77322.19
2022-08-05T07:49:00.589Z,77322.19
2022-08-05T07:51:05.570Z,77322.19
2022-08-05T07:53:50.598Z,77309.66
2022-08-05T07:57:00.202Z,77320.13
2022-08-05T07:59:04.176Z,77328.47
2022-08-05T08:01:35.142Z,77330.56
2022-08-05T08:04:08.048Z,77332.66
2022-08-05T08:06:34.595Z,77338.94
2022-08-05T08:09:01.131Z,77343.09
2022-08-05T08:11:47.869Z,77341.00
2022-08-05T08:14:18.215Z,77345.19
2022-08-05T08:16:50.954Z,77345.19
2022-08-05T08:20:10.277Z,77349.38
2022-08-05T08:22:05.613Z,77349.38
2022-08-05T08:24:51.420Z,77351.47
2022-08-05T08:27:18.755Z,77353.56
2022-08-05T08:30:05.640Z,77359.81
2022-08-05T08:32:34.465Z,77368.19
2022-08-05T08:35:07.445Z,77368.19
2022-08-05T08:37:40.304Z,77361.91
2022-08-05T08:40:12.040Z,77368.19
2022-08-05T08:42:50.914Z,77374.47
2022-08-05T08:45:27.130Z,77372.38
2022-08-05T08:48:12.695Z,77372.38
2022-08-05T08:51:03.225Z,77370.28
2022-08-05T08:53:36.622Z,77374.47
2022-08-05T08:56:05.976Z,77374.47
2022-08-05T08:58:43.949Z,77368.19
2022-08-05T09:01:16.826Z,77361.91
2022-08-05T09:03:54.218Z,77359.81
2022-08-05T09:06:24.293Z,77361.91
2022-08-05T09:08:55.505Z,77370.28
2022-08-05T09:11:52.076Z,77382.81
2022-08-05T09:14:54.555Z,77416.25
2022-08-05T09:16:55.339Z,77485.22
2022-08-05T09:19:27.961Z,77527.03
2022-08-05T09:22:22.474Z,77535.41
2022-08-05T09:25:23.814Z,77518.69
2022-08-05T09:28:03.847Z,77495.69
2022-08-05T09:30:34.576Z,77504.03
2022-08-05T09:33:01.906Z,77512.41
2022-08-05T09:35:29.335Z,77506.13
2022-08-05T09:38:17.572Z,77510.31
2022-08-05T09:40:53.698Z,77518.69
2022-08-05T09:43:40.870Z,77506.13
2022-08-05T09:46:28.022Z,77529.13
2022-08-05T09:49:08.283Z,77539.56
2022-08-05T09:51:42.775Z,77539.56
2022-08-05T09:54:10.160Z,77531.22
2022-08-05T09:56:38.121Z,77531.22
2022-08-05T09:59:09.759Z,77535.41
2022-08-05T10:01:45.638Z,77527.03
2022-08-05T10:04:16.184Z,77533.31
2022-08-05T10:06:59.232Z,77527.03
2022-08-05T10:09:29.340Z,77510.31
2022-08-05T10:12:28.328Z,77520.75
2022-08-05T10:15:13.569Z,77531.22
2022-08-05T10:17:47.325Z,77529.13
2022-08-05T10:20:23.565Z,77527.03
2022-08-05T10:22:51.530Z,77524.94
2022-08-05T10:25:19.134Z,77527.03
2022-08-05T10:28:16.645Z,77529.13
2022-08-05T10:31:20.428Z,77522.84
2022-08-05T10:33:28.983Z,77524.94
2022-08-05T10:35:59.279Z,77535.41
2022-08-05T10:38:28.177Z,77535.41
2022-08-05T10:41:13.728Z,77552.13
2022-08-05T10:43:55.025Z,77560.47
2022-08-05T10:46:23.968Z,77560.47
2022-08-05T10:49:06.429Z,77570.94
2022-08-05T10:51:53.066Z,77589.75
2022-08-05T10:54:46.873Z,77598.09
2022-08-05T10:57:26.417Z,77614.81
2022-08-05T11:00:14.768Z,77610.66
2022-08-05T11:03:25.225Z,77591.84
2022-08-05T11:06:03.848Z,77598.09
2022-08-05T11:08:39.285Z,77600.19
2022-08-05T11:11:44.821Z,77612.72
2022-08-05T11:15:11.412Z,77604.38
2022-08-05T11:17:57.056Z,77596.00
2022-08-05T11:20:39.005Z,77608.56
2022-08-05T11:24:02.666Z,77614.81
2022-08-05T11:26:28.484Z,77612.72
2022-08-05T11:29:12.605Z,77619.00
2022-08-05T11:31:54.399Z,77621.09
2022-08-05T11:34:51.826Z,77619.00
2022-08-05T11:38:37.004Z,77614.81
2022-08-05T11:41:12.915Z,77608.56
2022-08-05T11:44:04.896Z,77604.38
2022-08-05T11:46:35.237Z,77610.66
2022-08-05T11:49:03.246Z,77610.66
2022-08-05T11:51:44.830Z,77606.47
2022-08-05T11:54:33.877Z,77602.28
2022-08-05T11:57:08.831Z,77596.00
2022-08-05T11:59:49.726Z,77587.66
2022-08-05T12:02:30.286Z,77596.00
2022-08-05T12:05:00.382Z,77606.47
2022-08-05T12:08:08.807Z,77602.28
2022-08-05T12:10:45.074Z,77604.38
2022-08-05T12:13:15.858Z,77598.09
2022-08-05T12:15:51.408Z,77604.38
2022-08-05T12:18:33.340Z,77606.47
2022-08-05T12:21:10.390Z,77600.19
2022-08-05T12:23:36.876Z,77596.00
2022-08-05T12:26:09.802Z,77596.00
2022-08-05T12:28:37.798Z,77579.28
2022-08-05T12:31:05.435Z,77575.13
2022-08-05T12:33:36.509Z,77579.28
2022-08-05T12:36:07.223Z,77577.19
2022-08-05T12:38:37.891Z,77570.94
2022-08-05T12:41:13.345Z,77579.28
2022-08-05T12:44:11.717Z,77577.19
2022-08-05T12:46:45.613Z,77579.28
2022-08-05T12:49:14.635Z,77583.47
2022-08-05T12:52:13.620Z,77600.19
2022-08-05T12:54:46.145Z,77587.66
2022-08-05T12:57:16.421Z,77581.38
2022-08-05T13:01:56.981Z,77583.47
2022-08-05T13:02:37.422Z,77579.28
2022-08-05T13:05:07.233Z,77566.75
2022-08-05T13:07:59.382Z,77573.03
2022-08-05T13:10:20.673Z,77566.75
2022-08-05T13:12:57.213Z,77558.38
2022-08-05T13:15:36.030Z,77550.03
2022-08-05T13:18:19.732Z,77552.13
2022-08-05T13:20:47.237Z,77545.84
2022-08-05T13:23:16.304Z,77547.94
2022-08-05T13:25:58.694Z,77550.03
2022-08-05T13:28:27.583Z,77562.56
2022-08-05T13:30:54.148Z,77556.31
2022-08-05T13:34:21.231Z,77537.50
2022-08-05T13:36:09.142Z,77531.22
2022-08-05T13:38:42.474Z,77533.31
2022-08-05T13:41:10.933Z,77533.31
2022-08-05T13:43:44.915Z,77527.03
2022-08-05T13:46:50.690Z,77522.84
2022-08-05T13:49:10.131Z,77524.94
2022-08-05T13:51:40.986Z,77527.03
2022-08-05T13:54:13.440Z,77527.03
2022-08-05T13:56:45.389Z,77531.22
2022-08-05T13:59:19.820Z,77531.22
2022-08-05T14:01:57.804Z,77543.75
2022-08-05T14:04:43.837Z,77556.31
2022-08-05T14:07:55.363Z,77560.47
2022-08-05T14:10:10.218Z,77552.13
2022-08-05T14:12:36.818Z,77556.31
2022-08-05T14:15:05.900Z,77556.31
2022-08-05T14:17:50.894Z,77566.75
2022-08-05T14:20:21.500Z,77573.03
2022-08-05T14:22:54.361Z,77583.47
2022-08-05T14:25:22.470Z,77575.13
2022-08-05T14:27:54.454Z,77577.19
2022-08-05T14:30:21.417Z,77560.47
2022-08-05T14:32:48.834Z,77512.41
2022-08-05T14:35:16.224Z,77466.41
2022-08-05T14:37:51.012Z,77435.06
2022-08-05T14:40:21.666Z,77414.16
2022-08-05T14:42:51.068Z,77401.63
2022-08-05T14:45:18.519Z,77401.63
2022-08-05T14:48:03.976Z,77403.72
2022-08-05T14:50:31.695Z,77378.63
2022-08-05T14:55:38.638Z,77382.81
2022-08-05T14:58:11.147Z,77399.53
2022-08-05T15:00:39.551Z,77393.25
2022-08-05T15:03:25.475Z,77410.00
2022-08-05T15:06:12.982Z,77426.72
2022-08-05T15:09:01.484Z,77458.06
2022-08-05T15:11:52.388Z,77437.16
2022-08-05T15:14:11.997Z,77424.63
2022-08-05T15:16:58.482Z,77420.44
2022-08-05T15:19:26.123Z,77422.53
2022-08-05T15:21:52.731Z,77426.72
2022-08-05T15:24:19.287Z,77412.06
2022-08-05T15:26:46.736Z,77393.25
2022-08-05T15:29:15.273Z,77380.72
2022-08-05T15:31:41.833Z,77334.75
2022-08-05T15:34:31.927Z,77305.47
2022-08-05T15:36:54.805Z,77313.84
2022-08-05T15:41:01.804Z,77318.03
2022-08-05T15:42:53.591Z,77326.38
2022-08-05T15:44:55.018Z,77345.19
2022-08-05T15:47:22.423Z,77347.28
2022-08-05T15:49:58.817Z,77351.47
2022-08-05T15:52:52.339Z,77351.47
2022-08-05T15:55:16.837Z,77359.81
2022-08-05T15:57:43.419Z,77332.66
2022-08-05T16:00:12.250Z,77341.00
2022-08-05T16:02:43.333Z,77332.66
2022-08-05T16:05:11.267Z,77341.00
2022-08-05T16:07:38.146Z,77338.94
2022-08-05T16:10:12.882Z,77326.38
2022-08-05T16:12:39.803Z,77318.03
2022-08-05T16:15:06.795Z,77301.31
2022-08-05T16:17:36.040Z,77265.78
2022-08-05T16:20:04.715Z,77257.41
2022-08-05T16:22:34.707Z,77263.69
2022-08-05T16:25:08.163Z,77251.13
2022-08-05T16:27:59.969Z,77282.50
2022-08-05T16:30:26.253Z,77282.50
2022-08-05T16:32:55.105Z,77292.94
2022-08-05T16:35:27.771Z,77278.31
2022-08-05T16:38:01.854Z,77282.50
2022-08-05T16:40:42.114Z,77286.66
2022-08-05T16:43:16.463Z,77292.94
2022-08-05T16:46:03.734Z,77309.66
2022-08-05T16:48:33.601Z,77347.28
2022-08-05T16:51:01.996Z,77359.81
2022-08-05T16:53:31.848Z,77380.72
2022-08-05T16:55:59.425Z,77410.00
2022-08-05T16:58:26.068Z,77397.44
2022-08-05T17:00:52.984Z,77399.53
2022-08-05T17:03:19.957Z,77405.81
2022-08-05T17:05:53.199Z,77399.53
2022-08-05T17:08:33.473Z,77405.81
2022-08-05T17:11:03.769Z,77418.34
2022-08-05T17:13:37.803Z,77424.63
2022-08-05T17:16:28.120Z,77447.59
2022-08-05T17:18:54.713Z,77439.25
2022-08-05T17:21:21.275Z,77449.69
2022-08-05T17:24:05.810Z,77449.69
2022-08-05T17:26:36.994Z,77453.88
2022-08-05T17:29:09.918Z,77443.44
2022-08-05T17:31:57.321Z,77441.34
2022-08-05T17:34:30.156Z,77474.78
2022-08-05T17:36:59.822Z,77483.16
2022-08-05T17:39:33.932Z,77499.88
2022-08-05T17:42:17.808Z,77497.78
2022-08-05T17:44:50.392Z,77514.50
2022-08-05T17:47:21.950Z,77522.84
2022-08-05T17:50:00.399Z,77527.03
2022-08-05T17:52:34.143Z,77543.75
2022-08-05T17:55:01.376Z,77543.75
2022-08-05T17:57:29.688Z,77558.38
2022-08-05T18:00:03.266Z,77566.75
2022-08-05T18:02:31.295Z,77573.03
2022-08-05T18:04:57.842Z,77596.00
2022-08-05T18:07:25.444Z,77598.09
2022-08-05T18:10:02.077Z,77608.56
2022-08-05T18:12:35.723Z,77623.19
2022-08-05T18:15:02.416Z,77633.63
2022-08-05T18:17:58.634Z,77639.91
2022-08-05T18:20:15.482Z,77675.44
2022-08-05T18:22:53.918Z,77660.81
2022-08-05T18:25:20.916Z,77681.72
2022-08-05T18:27:52.604Z,77690.06
2022-08-05T18:30:19.483Z,77700.53
2022-08-05T18:32:53.089Z,77713.06
2022-08-05T18:35:49.649Z,77729.78
2022-08-05T18:38:13.347Z,77742.34
2022-08-05T18:41:55.218Z,77763.22
2022-08-05T18:43:31.421Z,77771.59
2022-08-05T18:45:58.703Z,77786.22
2022-08-05T18:48:30.885Z,77786.22
2022-08-05T18:52:04.543Z,77805.03
2022-08-05T18:54:03.958Z,77811.31
2022-08-05T18:56:30.525Z,77819.69
2022-08-05T18:59:01.167Z,77836.41
2022-08-05T19:01:33.205Z,77848.94
2022-08-05T19:04:00.035Z,77857.31
2022-08-05T19:06:34.377Z,77859.38
2022-08-05T19:09:11.165Z,77876.13
2022-08-05T19:12:00.945Z,77890.75
2022-08-05T19:14:44.602Z,77897.00
2022-08-05T19:17:12.952Z,77907.47
2022-08-05T19:19:46.411Z,77920.00
2022-08-05T19:22:17.095Z,77934.66
2022-08-05T19:24:55.828Z,77943.00
2022-08-05T19:27:23.651Z,77955.56
2022-08-05T19:29:51.819Z,77957.63
2022-08-05T19:32:18.511Z,77972.28
2022-08-05T19:34:54.710Z,77984.81
2022-08-05T19:37:21.878Z,77991.09
2022-08-05T19:39:58.076Z,78001.53
2022-08-05T19:42:35.888Z,78014.09
2022-08-05T19:45:02.689Z,78026.63
2022-08-05T19:47:32.892Z,78026.63
2022-08-05T19:50:01.078Z,78039.16
2022-08-05T19:52:30.925Z,78039.16
2022-08-05T19:55:00.609Z,78057.97
2022-08-05T19:57:49.338Z,78068.44
2022-08-05T20:00:20.841Z,78074.69
2022-08-05T20:02:47.469Z,78080.97
2022-08-05T20:05:16.468Z,78087.25
2022-08-05T20:07:55.046Z,78095.59
2022-08-05T20:10:25.106Z,78103.97
2022-08-05T20:12:51.805Z,78106.06
2022-08-05T20:15:23.288Z,78114.44
2022-08-05T20:18:10.457Z,78122.78
2022-08-05T20:20:55.352Z,78129.06
2022-08-05T20:23:23.707Z,78129.06
2022-08-05T20:26:07.691Z,78141.59
2022-08-05T20:28:34.222Z,78152.06
2022-08-05T20:31:03.479Z,78160.41
2022-08-05T20:33:33.064Z,78166.69
2022-08-05T20:35:59.800Z,78172.97
2022-08-05T20:38:27.714Z,78170.88
2022-08-05T20:40:56.506Z,78181.31
2022-08-05T20:43:57.544Z,78191.78
2022-08-05T20:46:10.329Z,78191.78
2022-08-05T20:48:44.789Z,78195.94
2022-08-05T20:51:16.810Z,78208.50
2022-08-05T20:53:43.268Z,78210.59
2022-08-05T20:56:28.037Z,78223.13
2022-08-05T20:58:56.791Z,78233.59
2022-08-05T21:01:38.352Z,78239.84
2022-08-05T21:04:07.241Z,78239.84
2022-08-05T21:06:36.844Z,78239.84
2022-08-05T21:09:05.600Z,78239.84
2022-08-05T21:12:09.534Z,78246.13
2022-08-05T21:14:20.076Z,78260.75
2022-08-05T21:16:47.080Z,78250.31
2022-08-05T21:19:13.599Z,78250.31
2022-08-05T21:21:50.551Z,78262.84
2022-08-05T21:24:19.513Z,78260.75
2022-08-05T21:26:57.992Z,78258.66
2022-08-05T21:29:32.015Z,78269.13
2022-08-05T21:31:59.358Z,78269.13
2022-08-05T21:34:25.838Z,78281.66
2022-08-05T21:36:54.870Z,78287.94
2022-08-05T21:39:26.733Z,78292.13
2022-08-05T21:42:01.266Z,78290.03
2022-08-05T21:44:29.177Z,78298.38
2022-08-05T21:46:58.057Z,78300.47
2022-08-05T21:49:48.553Z,78300.47
2022-08-05T21:52:23.030Z,78304.66
2022-08-05T21:54:56.388Z,78300.47
2022-08-05T21:57:31.414Z,78302.56
2022-08-05T22:00:10.874Z,78302.56
2022-08-05T22:02:38.463Z,78310.94
2022-08-05T22:05:06.010Z,78304.66
2022-08-05T22:07:40.228Z,78308.84
2022-08-05T22:10:26.628Z,78321.38
2022-08-05T22:12:57.364Z,78327.66
2022-08-05T22:16:00.990Z,78325.56
2022-08-05T22:18:11.124Z,78329.75
2022-08-05T22:20:38.905Z,78338.13
2022-08-05T22:23:24.904Z,78340.19
2022-08-05T22:26:29.976Z,78346.47
2022-08-05T22:28:56.495Z,78350.66
2022-08-05T22:31:22.984Z,78361.09
2022-08-05T22:33:55.650Z,78369.47
2022-08-05T22:36:24.150Z,78373.66
2022-08-05T22:38:51.496Z,78377.84
2022-08-05T22:42:05.389Z,78379.94
2022-08-05T22:44:08.212Z,78379.94
2022-08-05T22:46:39.505Z,78377.84
2022-08-05T22:49:23.160Z,78386.19
2022-08-05T22:52:04.580Z,78388.28
2022-08-05T22:54:35.525Z,78390.38
2022-08-05T22:57:02.831Z,78394.56
2022-08-05T22:59:43.568Z,78400.84
2022-08-05T23:02:17.641Z,78405.00
2022-08-05T23:04:51.524Z,78409.19
2022-08-05T23:07:19.499Z,78411.28
2022-08-05T23:09:57.226Z,78425.91
2022-08-05T23:12:28.621Z,78425.91
2022-08-05T23:14:55.415Z,78425.91
2022-08-05T23:17:35.019Z,78419.66
2022-08-05T23:20:10.457Z,78421.75
2022-08-05T23:22:47.832Z,78432.19
2022-08-05T23:25:54.765Z,78444.72
2022-08-05T23:28:07.038Z,78451.00
2022-08-05T23:30:40.585Z,78451.00
2022-08-05T23:33:19.069Z,78451.00
2022-08-05T23:35:52.429Z,78461.47
2022-08-05T23:38:22.939Z,78463.56
2022-08-05T23:40:50.899Z,78474.00
2022-08-05T23:43:25.369Z,78480.28
2022-08-05T23:46:20.983Z,78476.09
2022-08-05T23:49:00.817Z,78484.47
2022-08-05T23:51:54.316Z,78488.63
2022-08-05T23:54:26.608Z,78492.81
2022-08-05T23:57:04.069Z,78497.00
